Terminal Aerodrome Forecast
Issued by NWS Albany, NY

Home | Current Version | Previous Version | Text Only | Print | Product List | Glossary On
Versions: 1 2 3 4 5 6 7 8 9 10 11 12 13 14
006
FTUS41 KALY 290520
TAFALB
TAF
KALB 290520Z 2906/3006 17005KT P6SM FEW250
     FM291200 18007KT P6SM SCT035 BKN120
     FM291700 17010G15KT P6SM VCSH SCT060 BKN080
     FM292300 17008KT 6SM BR VCSH SCT030 BKN050 OVC090=

USA.gov is the U.S. government's official web portal to all federal, state and local government web resources and services.